createdAt,value
2024-01-29T00:01:54.895Z,44.88
2024-01-29T00:04:21.453Z,46.25
2024-01-29T00:06:47.977Z,45.50
2024-01-29T00:09:15.297Z,45.62
2024-01-29T00:11:41.835Z,45.03
2024-01-29T00:14:08.398Z,45.42
2024-01-29T00:16:34.833Z,45.57
2024-01-29T00:19:01.325Z,45.36
2024-01-29T00:21:27.816Z,45.79
2024-01-29T00:23:54.251Z,45.30
2024-01-29T00:26:21.530Z,45.44
2024-01-29T00:28:47.946Z,45.30
2024-01-29T00:31:14.381Z,45.47
2024-01-29T00:33:41.058Z,45.52
2024-01-29T00:36:07.613Z,45.48
2024-01-29T00:38:34.017Z,45.41
2024-01-29T00:41:00.442Z,45.56
2024-01-29T00:43:26.896Z,45.05
2024-01-29T00:45:53.343Z,46.24
2024-01-29T00:48:19.958Z,45.52
2024-01-29T00:50:46.356Z,45.16
2024-01-29T00:53:12.853Z,45.17
2024-01-29T00:55:39.275Z,45.36
2024-01-29T00:58:05.752Z,45.12
2024-01-29T01:00:33.238Z,45.67
2024-01-29T01:02:59.731Z,44.97
2024-01-29T01:05:26.229Z,45.23
2024-01-29T01:07:52.741Z,45.36
2024-01-29T01:10:19.153Z,45.09
2024-01-29T01:12:45.572Z,44.95
2024-01-29T01:15:12.027Z,44.96
2024-01-29T01:17:38.550Z,44.75
2024-01-29T01:20:05.173Z,45.15
2024-01-29T01:22:31.685Z,45.47
2024-01-29T01:24:58.129Z,45.37
2024-01-29T01:27:24.612Z,45.20
2024-01-29T01:29:51.021Z,45.09
2024-01-29T01:32:17.451Z,45.31
2024-01-29T01:34:43.968Z,45.73
2024-01-29T01:37:10.440Z,45.07
2024-01-29T01:39:36.943Z,45.16
2024-01-29T01:42:03.365Z,44.93
2024-01-29T01:44:29.756Z,45.89
2024-01-29T01:46:56.188Z,45.74
2024-01-29T01:49:23.393Z,45.00
2024-01-29T01:51:49.969Z,45.63
2024-01-29T01:54:17.333Z,45.00
2024-01-29T01:56:43.745Z,45.18
2024-01-29T01:59:10.170Z,44.80
2024-01-29T02:01:36.677Z,44.85
2024-01-29T02:04:03.346Z,45.42
2024-01-29T02:06:30.022Z,45.12
2024-01-29T02:08:56.554Z,44.69
2024-01-29T02:11:22.966Z,45.27
2024-01-29T02:13:49.391Z,44.95
2024-01-29T02:16:16.665Z,45.40
2024-01-29T02:18:43.148Z,45.43
2024-01-29T02:21:09.608Z,45.02
2024-01-29T02:23:36.039Z,45.33
2024-01-29T02:26:03.314Z,44.90
2024-01-29T02:28:29.709Z,45.12
2024-01-29T02:30:56.415Z,44.65
2024-01-29T02:33:23.103Z,45.31
2024-01-29T02:35:49.667Z,45.04
2024-01-29T02:38:17.003Z,45.01
2024-01-29T02:40:43.462Z,45.00
2024-01-29T02:43:10.789Z,45.15
2024-01-29T02:45:37.360Z,45.65
2024-01-29T02:48:04.012Z,45.28
2024-01-29T02:50:30.581Z,45.33
2024-01-29T02:52:57.009Z,45.17
2024-01-29T02:55:23.409Z,45.19
2024-01-29T02:57:49.911Z,45.33
2024-01-29T03:00:16.414Z,45.00
2024-01-29T03:02:42.910Z,44.70
2024-01-29T03:05:10.219Z,45.25
2024-01-29T03:07:36.640Z,45.74
2024-01-29T03:10:03.135Z,45.13
2024-01-29T03:12:29.615Z,45.21
2024-01-29T03:14:56.033Z,45.32
2024-01-29T03:17:22.627Z,45.17
2024-01-29T03:19:49.129Z,45.15
2024-01-29T03:22:16.496Z,44.93
2024-01-29T03:24:42.936Z,45.13
2024-01-29T03:27:10.232Z,45.56
2024-01-29T03:29:36.629Z,45.16
2024-01-29T03:32:03.535Z,45.03
2024-01-29T03:34:30.051Z,45.99
2024-01-29T03:36:56.545Z,45.34
2024-01-29T03:39:23.882Z,45.10
2024-01-29T03:41:50.327Z,45.61
2024-01-29T03:44:17.668Z,44.85
2024-01-29T03:46:44.082Z,44.99
2024-01-29T03:49:10.614Z,44.67
2024-01-29T03:51:37.134Z,44.59
2024-01-29T03:54:03.815Z,45.24
2024-01-29T03:56:30.237Z,45.20
2024-01-29T03:58:56.654Z,44.94
2024-01-29T04:01:23.135Z,45.76
2024-01-29T04:03:49.610Z,44.99
2024-01-29T04:06:16.114Z,45.19
2024-01-29T04:08:42.594Z,45.21
2024-01-29T04:11:09.884Z,44.91
2024-01-29T04:13:36.282Z,45.44
2024-01-29T04:16:02.808Z,45.29
2024-01-29T04:18:29.383Z,44.85
2024-01-29T04:20:55.857Z,45.64
2024-01-29T04:23:22.268Z,44.88
2024-01-29T04:25:48.725Z,45.23
2024-01-29T04:28:16.002Z,44.81
2024-01-29T04:30:42.458Z,44.98
2024-01-29T04:33:08.989Z,45.33
2024-01-29T04:35:35.451Z,44.90
2024-01-29T04:38:01.867Z,45.63
2024-01-29T04:40:28.279Z,45.07
2024-01-29T04:42:54.733Z,45.08
2024-01-29T04:45:21.165Z,44.82
2024-01-29T04:47:47.768Z,44.72
2024-01-29T04:50:14.283Z,45.51
2024-01-29T04:52:40.809Z,45.34
2024-01-29T04:55:07.320Z,44.92
2024-01-29T04:57:33.782Z,45.01
2024-01-29T05:00:00.205Z,44.87
2024-01-29T05:02:26.652Z,44.90
2024-01-29T05:04:53.137Z,44.69
2024-01-29T05:07:19.758Z,45.13
2024-01-29T05:09:46.290Z,45.17
2024-01-29T05:12:12.735Z,44.74
2024-01-29T05:14:39.154Z,44.99
2024-01-29T05:17:05.714Z,45.70
2024-01-29T05:19:32.248Z,44.87
2024-01-29T05:21:59.547Z,45.24
2024-01-29T05:24:26.140Z,45.46
2024-01-29T05:26:52.555Z,45.10
2024-01-29T05:29:18.948Z,45.47
2024-01-29T05:31:45.361Z,45.70
2024-01-29T05:34:11.818Z,45.44
2024-01-29T05:36:38.323Z,45.03
2024-01-29T05:39:04.757Z,44.61
2024-01-29T05:41:31.918Z,45.03
2024-01-29T05:43:58.524Z,44.83
2024-01-29T05:46:25.086Z,45.34
2024-01-29T05:48:51.678Z,45.31
2024-01-29T05:51:18.230Z,45.04
2024-01-29T05:53:44.621Z,46.12
2024-01-29T05:56:11.941Z,45.67
2024-01-29T05:58:38.354Z,45.15
2024-01-29T06:01:05.099Z,45.71
2024-01-29T06:03:32.532Z,45.63
2024-01-29T06:05:59.167Z,46.28
2024-01-29T06:08:27.577Z,45.94
2024-01-29T06:10:54.061Z,46.64
2024-01-29T06:13:21.323Z,46.03
2024-01-29T06:15:48.669Z,46.43
2024-01-29T06:18:16.257Z,46.34
2024-01-29T06:20:43.812Z,45.46
2024-01-29T06:23:10.389Z,46.01
2024-01-29T06:25:36.916Z,45.54
2024-01-29T06:28:04.476Z,45.76
2024-01-29T06:30:31.983Z,45.35
2024-01-29T06:32:58.625Z,45.71
2024-01-29T06:35:25.165Z,45.68
2024-01-29T06:37:52.648Z,45.67
2024-01-29T06:40:20.144Z,45.68
2024-01-29T06:42:46.731Z,45.42
2024-01-29T06:45:13.288Z,45.71
2024-01-29T06:47:40.774Z,45.42
2024-01-29T06:50:07.361Z,45.82
2024-01-29T06:52:33.922Z,45.83
2024-01-29T06:55:01.562Z,45.40
2024-01-29T06:57:29.165Z,45.46
2024-01-29T06:59:56.727Z,45.47
2024-01-29T07:02:23.727Z,45.77
2024-01-29T07:04:50.294Z,45.67
2024-01-29T07:07:17.818Z,45.60
2024-01-29T07:09:44.543Z,45.48
2024-01-29T07:12:11.111Z,45.12
2024-01-29T07:14:41.320Z,45.79
2024-01-29T07:17:08.775Z,45.06
2024-01-29T07:19:36.347Z,45.80
2024-01-29T07:22:02.985Z,45.64
2024-01-29T07:24:29.560Z,45.46
2024-01-29T07:26:56.965Z,45.56
2024-01-29T07:29:25.362Z,45.19
2024-01-29T07:31:52.827Z,45.42
2024-01-29T07:34:19.504Z,44.94
2024-01-29T07:36:46.956Z,45.40
2024-01-29T07:39:13.720Z,45.16
2024-01-29T07:41:41.699Z,45.10
2024-01-29T07:44:09.143Z,45.32
2024-01-29T07:46:37.499Z,45.22
2024-01-29T07:49:05.033Z,45.27
2024-01-29T07:51:33.518Z,45.37
2024-01-29T07:54:02.813Z,45.33
2024-01-29T07:56:32.859Z,45.14
2024-01-29T07:58:59.396Z,45.24
2024-01-29T08:01:25.974Z,45.41
2024-01-29T08:03:53.440Z,44.78
2024-01-29T08:06:20.843Z,45.48
2024-01-29T08:08:48.268Z,44.96
2024-01-29T08:11:14.717Z,45.12
2024-01-29T08:13:41.188Z,45.54
2024-01-29T08:16:07.848Z,45.89
2024-01-29T08:18:34.647Z,46.06
2024-01-29T08:21:01.391Z,46.06
2024-01-29T08:23:28.089Z,46.11
2024-01-29T08:25:54.648Z,46.80
2024-01-29T08:28:21.934Z,46.38
2024-01-29T08:30:48.413Z,46.54
2024-01-29T08:33:15.793Z,46.85
2024-01-29T08:35:42.256Z,46.97
2024-01-29T08:38:09.454Z,47.57
2024-01-29T08:40:36.952Z,46.43
2024-01-29T08:43:03.497Z,46.99
2024-01-29T08:45:32.982Z,46.76
2024-01-29T08:47:59.518Z,46.74
2024-01-29T08:50:27.888Z,46.99
2024-01-29T08:52:55.233Z,46.55
2024-01-29T08:55:22.896Z,46.48
2024-01-29T08:57:50.260Z,46.45
2024-01-29T09:00:16.731Z,46.70
2024-01-29T09:02:43.145Z,46.35
2024-01-29T09:05:10.455Z,45.59
2024-01-29T09:07:36.906Z,45.35
2024-01-29T09:10:03.387Z,45.54
2024-01-29T09:12:29.823Z,44.93
2024-01-29T09:14:56.293Z,45.25
2024-01-29T09:17:22.947Z,44.37
2024-01-29T09:19:53.160Z,44.24
2024-01-29T09:22:19.805Z,44.13
2024-01-29T09:24:46.323Z,43.84
2024-01-29T09:27:13.642Z,44.16
2024-01-29T09:29:40.080Z,43.97
2024-01-29T09:32:06.615Z,43.64
2024-01-29T09:34:33.231Z,43.26
2024-01-29T09:36:59.866Z,42.83
2024-01-29T09:39:26.497Z,43.00
2024-01-29T09:41:54.044Z,42.08
2024-01-29T09:44:23.307Z,42.50
2024-01-29T09:46:49.733Z,42.62
2024-01-29T09:49:16.357Z,42.39
2024-01-29T09:51:42.915Z,42.46
2024-01-29T09:54:09.380Z,41.76
2024-01-29T09:56:35.887Z,42.57
2024-01-29T09:59:02.325Z,41.90
2024-01-29T10:01:29.764Z,41.04
2024-01-29T10:03:57.137Z,42.14
2024-01-29T10:06:29.596Z,41.69
2024-01-29T10:08:58.028Z,41.61
2024-01-29T10:11:24.450Z,40.85
2024-01-29T10:13:51.010Z,42.04
2024-01-29T10:16:17.656Z,40.84
2024-01-29T10:18:45.114Z,41.67
2024-01-29T10:21:13.524Z,41.47
2024-01-29T10:23:40.339Z,40.65
2024-01-29T10:26:06.922Z,41.24
2024-01-29T10:28:33.436Z,41.00
2024-01-29T10:31:00.075Z,41.40
2024-01-29T10:33:28.868Z,41.73
2024-01-29T10:35:56.446Z,41.48
2024-01-29T10:38:23.698Z,41.89
2024-01-29T10:40:50.300Z,41.49
2024-01-29T10:43:18.103Z,42.31
2024-01-29T10:45:45.047Z,41.65
2024-01-29T10:48:12.818Z,41.95
2024-01-29T10:50:41.440Z,40.79
2024-01-29T10:53:08.809Z,41.59
2024-01-29T10:55:35.373Z,41.33
2024-01-29T10:58:04.746Z,41.68
2024-01-29T11:00:33.204Z,41.13
2024-01-29T11:03:02.492Z,41.14
2024-01-29T11:05:28.946Z,41.30
2024-01-29T11:07:56.414Z,41.16
2024-01-29T11:10:24.196Z,42.46
2024-01-29T11:12:50.709Z,41.66
2024-01-29T11:15:19.944Z,42.28
2024-01-29T11:17:46.409Z,41.95
2024-01-29T11:20:12.828Z,42.23
2024-01-29T11:22:39.264Z,42.49
2024-01-29T11:25:06.664Z,41.95
2024-01-29T11:27:33.128Z,41.48
2024-01-29T11:30:00.425Z,41.67
2024-01-29T11:32:26.880Z,41.63
2024-01-29T11:34:53.463Z,41.31
2024-01-29T11:37:21.021Z,41.71
2024-01-29T11:39:48.519Z,41.56
2024-01-29T11:42:15.063Z,41.72
2024-01-29T11:44:43.470Z,41.48
2024-01-29T11:47:10.052Z,41.94
2024-01-29T11:49:36.659Z,41.96
2024-01-29T11:52:04.154Z,41.85
2024-01-29T11:54:30.803Z,41.43
2024-01-29T11:56:57.575Z,41.31
2024-01-29T11:59:27.951Z,41.31
2024-01-29T12:01:54.530Z,41.06
2024-01-29T12:04:21.223Z,41.11
2024-01-29T12:06:47.797Z,41.07
2024-01-29T12:09:15.107Z,40.69
2024-01-29T12:11:42.467Z,40.26
2024-01-29T12:14:09.043Z,40.51
2024-01-29T12:16:36.345Z,40.83
2024-01-29T12:19:02.911Z,40.49
2024-01-29T12:21:29.411Z,40.28
2024-01-29T12:23:56.915Z,40.61
2024-01-29T12:26:24.448Z,41.12
2024-01-29T12:28:51.786Z,41.44
2024-01-29T12:31:18.385Z,40.79
2024-01-29T12:33:44.998Z,40.85
2024-01-29T12:36:14.632Z,41.18
2024-01-29T12:38:41.554Z,40.95
2024-01-29T12:41:08.146Z,40.99
2024-01-29T12:43:34.737Z,40.69
2024-01-29T12:46:04.073Z,40.98
2024-01-29T12:48:30.785Z,40.96
2024-01-29T12:50:57.717Z,40.81
2024-01-29T12:53:24.359Z,40.74
2024-01-29T12:55:50.908Z,40.86
2024-01-29T12:58:17.397Z,41.61
2024-01-29T13:00:45.831Z,41.46
2024-01-29T13:03:15.082Z,41.91
2024-01-29T13:05:42.462Z,41.34
2024-01-29T13:08:09.078Z,41.84
2024-01-29T13:10:37.514Z,41.33
2024-01-29T13:13:04.148Z,41.57
2024-01-29T13:15:30.703Z,41.31
2024-01-29T13:17:57.327Z,41.16
2024-01-29T13:20:24.219Z,41.75
2024-01-29T13:22:50.821Z,40.86
2024-01-29T13:25:17.385Z,41.91
2024-01-29T13:27:43.927Z,41.29
2024-01-29T13:30:11.279Z,41.46
2024-01-29T13:32:38.617Z,41.89
2024-01-29T13:35:05.309Z,41.71
2024-01-29T13:37:31.810Z,41.62
2024-01-29T13:40:00.247Z,41.33
2024-01-29T13:42:26.767Z,41.82
2024-01-29T13:44:54.205Z,41.73
2024-01-29T13:47:23.532Z,42.18
2024-01-29T13:49:49.995Z,41.91
2024-01-29T13:52:16.615Z,41.79
2024-01-29T13:54:43.123Z,41.03
2024-01-29T13:57:09.592Z,41.04
2024-01-29T13:59:36.032Z,41.57
2024-01-29T14:02:02.624Z,42.11
2024-01-29T14:04:29.295Z,41.56
2024-01-29T14:06:55.971Z,40.17
2024-01-29T14:09:23.389Z,39.75
2024-01-29T14:11:50.735Z,40.12
2024-01-29T14:14:19.846Z,40.11
2024-01-29T14:16:49.258Z,40.58
2024-01-29T14:19:16.759Z,40.24
2024-01-29T14:21:43.515Z,40.40
2024-01-29T14:24:11.884Z,40.40
2024-01-29T14:26:38.456Z,40.36
2024-01-29T14:29:05.038Z,40.35
2024-01-29T14:31:31.702Z,40.51
2024-01-29T14:34:01.038Z,40.62
2024-01-29T14:36:29.482Z,40.30
2024-01-29T14:38:58.031Z,40.51
2024-01-29T14:41:24.588Z,40.60
2024-01-29T14:43:51.077Z,40.24
2024-01-29T14:46:17.760Z,40.08
2024-01-29T14:48:47.074Z,40.11
2024-01-29T14:51:13.672Z,40.24
2024-01-29T14:53:45.736Z,39.97
2024-01-29T14:56:12.550Z,40.21
2024-01-29T14:58:39.026Z,39.94
2024-01-29T15:01:06.021Z,40.15
2024-01-29T15:03:32.790Z,39.76
2024-01-29T15:05:59.627Z,40.09
2024-01-29T15:08:26.378Z,40.02
2024-01-29T15:10:54.778Z,39.88
2024-01-29T15:13:21.391Z,39.69
2024-01-29T15:15:48.048Z,39.92
2024-01-29T15:18:14.645Z,40.03
2024-01-29T15:20:43.002Z,39.81
2024-01-29T15:23:09.610Z,39.93
2024-01-29T15:25:38.009Z,40.05
2024-01-29T15:28:05.709Z,39.72
2024-01-29T15:30:33.732Z,39.85
2024-01-29T15:33:01.134Z,40.04
2024-01-29T15:35:31.985Z,40.19
2024-01-29T15:38:01.235Z,40.21
2024-01-29T15:40:27.739Z,39.92
2024-01-29T15:42:56.507Z,40.09
2024-01-29T15:45:23.094Z,39.91
2024-01-29T15:47:49.650Z,40.18
2024-01-29T15:50:18.086Z,40.21
2024-01-29T15:52:45.469Z,40.03
2024-01-29T15:55:14.783Z,40.06
2024-01-29T15:57:41.458Z,39.75
2024-01-29T16:00:09.843Z,40.05
2024-01-29T16:02:36.354Z,40.01
2024-01-29T16:05:04.899Z,40.11
2024-01-29T16:07:33.368Z,39.90
2024-01-29T16:09:59.932Z,39.85
2024-01-29T16:12:28.378Z,40.11
2024-01-29T16:14:57.650Z,39.77
2024-01-29T16:17:27.277Z,39.94
2024-01-29T16:19:54.290Z,39.97
2024-01-29T16:22:22.871Z,40.18
2024-01-29T16:24:49.420Z,40.10
2024-01-29T16:27:18.796Z,39.83
2024-01-29T16:29:46.097Z,40.01
2024-01-29T16:32:13.477Z,39.80
2024-01-29T16:34:40.003Z,40.02
2024-01-29T16:37:09.314Z,40.08
2024-01-29T16:39:35.939Z,39.95
2024-01-29T16:42:02.484Z,39.92
2024-01-29T16:44:29.074Z,39.78
2024-01-29T16:46:57.431Z,39.73
2024-01-29T16:49:24.040Z,39.70
2024-01-29T16:51:50.614Z,39.80
2024-01-29T16:54:19.918Z,39.84
2024-01-29T16:56:46.483Z,39.96
2024-01-29T16:59:13.072Z,39.76
2024-01-29T17:01:39.816Z,39.76
2024-01-29T17:04:06.597Z,39.58
2024-01-29T17:06:33.320Z,39.55
2024-01-29T17:09:01.912Z,39.67
2024-01-29T17:11:31.166Z,40.02
2024-01-29T17:13:57.849Z,39.65
2024-01-29T17:16:26.341Z,39.89
2024-01-29T17:18:52.898Z,40.00
2024-01-29T17:21:19.593Z,40.08
2024-01-29T17:23:48.004Z,39.95
2024-01-29T17:26:14.527Z,39.95
2024-01-29T17:28:43.022Z,39.79
2024-01-29T17:31:09.614Z,39.91
2024-01-29T17:33:36.307Z,40.11
2024-01-29T17:36:02.857Z,40.09
2024-01-29T17:38:32.114Z,40.14
2024-01-29T17:41:00.568Z,40.07
2024-01-29T17:43:29.082Z,40.14
2024-01-29T17:45:57.546Z,39.93
2024-01-29T17:48:27.737Z,40.32
2024-01-29T17:50:57.898Z,40.05
2024-01-29T17:53:27.744Z,40.08
2024-01-29T17:55:56.207Z,40.39
2024-01-29T17:58:24.911Z,40.41
2024-01-29T18:00:52.365Z,40.23
2024-01-29T18:03:19.027Z,40.28
2024-01-29T18:05:45.578Z,40.50
2024-01-29T18:08:13.123Z,40.42
2024-01-29T18:10:39.672Z,40.28
2024-01-29T18:13:07.192Z,40.47
2024-01-29T18:15:33.966Z,40.35
2024-01-29T18:18:00.649Z,40.54
2024-01-29T18:20:28.156Z,40.55
2024-01-29T18:22:57.077Z,40.42
2024-01-29T18:25:23.663Z,40.60
2024-01-29T18:27:50.329Z,40.50
2024-01-29T18:30:17.855Z,40.48
2024-01-29T18:32:44.422Z,40.25
2024-01-29T18:35:12.131Z,40.65
2024-01-29T18:37:42.182Z,40.32
2024-01-29T18:40:10.334Z,40.25
2024-01-29T18:42:36.899Z,40.42
2024-01-29T18:45:04.467Z,40.46
2024-01-29T18:47:31.019Z,40.41
2024-01-29T18:49:58.581Z,40.30
2024-01-29T18:52:26.187Z,40.61
2024-01-29T18:54:52.780Z,40.37
2024-01-29T18:57:19.339Z,40.27
2024-01-29T18:59:45.942Z,40.43
2024-01-29T19:02:13.505Z,40.83
2024-01-29T19:04:40.157Z,41.35
2024-01-29T19:07:06.879Z,41.67
2024-01-29T19:09:33.510Z,41.86
2024-01-29T19:12:00.171Z,41.75
2024-01-29T19:14:26.761Z,42.08
2024-01-29T19:16:53.340Z,42.64
2024-01-29T19:19:20.892Z,42.82
2024-01-29T19:21:47.466Z,43.50
2024-01-29T19:24:14.000Z,43.70
2024-01-29T19:26:41.472Z,43.79
2024-01-29T19:29:08.087Z,44.20
2024-01-29T19:31:35.651Z,44.11
2024-01-29T19:34:02.289Z,44.49
2024-01-29T19:36:29.795Z,44.68
2024-01-29T19:38:56.314Z,44.77
2024-01-29T19:41:23.760Z,45.04
2024-01-29T19:43:51.257Z,45.36
2024-01-29T19:46:18.748Z,45.16
2024-01-29T19:48:46.214Z,45.08
2024-01-29T19:51:13.585Z,45.10
2024-01-29T19:53:40.894Z,45.40
2024-01-29T19:56:08.576Z,45.04
2024-01-29T19:58:35.166Z,45.44
2024-01-29T20:01:02.560Z,45.32
2024-01-29T20:03:31.036Z,45.22
2024-01-29T20:06:01.803Z,45.23
2024-01-29T20:08:28.608Z,44.46
2024-01-29T20:10:57.173Z,44.48
2024-01-29T20:13:23.870Z,44.86
2024-01-29T20:15:51.360Z,44.71
2024-01-29T20:18:17.991Z,44.51
2024-01-29T20:20:44.562Z,44.75
2024-01-29T20:23:11.981Z,45.03
2024-01-29T20:25:38.506Z,44.79
2024-01-29T20:28:05.122Z,45.25
2024-01-29T20:30:31.690Z,45.24
2024-01-29T20:32:58.379Z,45.42
2024-01-29T20:35:25.233Z,45.35
2024-01-29T20:37:51.777Z,45.18
2024-01-29T20:40:19.004Z,45.03
2024-01-29T20:42:45.600Z,44.71
2024-01-29T20:45:13.045Z,45.37
2024-01-29T20:47:40.569Z,45.32
2024-01-29T20:50:08.251Z,44.95
2024-01-29T20:52:35.033Z,45.03
2024-01-29T20:55:07.626Z,44.74
2024-01-29T20:57:41.762Z,45.11
2024-01-29T21:00:08.346Z,44.98
2024-01-29T21:02:35.785Z,45.03
2024-01-29T21:05:02.394Z,44.66
2024-01-29T21:07:29.211Z,44.98
2024-01-29T21:09:56.728Z,44.38
2024-01-29T21:12:24.329Z,42.90
2024-01-29T21:14:50.907Z,42.98
2024-01-29T21:17:18.302Z,42.87
2024-01-29T21:19:44.976Z,40.64
2024-01-29T21:22:12.434Z,40.87
2024-01-29T21:24:39.061Z,39.75
2024-01-29T21:27:05.588Z,39.61
2024-01-29T21:29:32.946Z,39.51
2024-01-29T21:32:00.341Z,39.73
2024-01-29T21:34:26.881Z,39.06
2024-01-29T21:36:54.268Z,39.03
2024-01-29T21:39:21.667Z,41.88
2024-01-29T21:41:49.031Z,39.69
2024-01-29T21:44:16.380Z,39.92
2024-01-29T21:46:44.818Z,39.13
2024-01-29T21:49:12.281Z,39.73
2024-01-29T21:51:38.807Z,43.36
2024-01-29T21:54:06.301Z,43.74
2024-01-29T21:56:33.865Z,43.60
2024-01-29T21:59:01.240Z,42.62
2024-01-29T22:01:27.910Z,43.25
2024-01-29T22:03:54.553Z,43.34
2024-01-29T22:06:21.130Z,43.78
2024-01-29T22:08:48.568Z,44.02
2024-01-29T22:11:15.101Z,43.79
2024-01-29T22:13:41.686Z,43.58
2024-01-29T22:16:08.340Z,44.27
2024-01-29T22:18:35.061Z,44.10
2024-01-29T22:21:01.693Z,43.50
2024-01-29T22:23:29.200Z,44.57
2024-01-29T22:25:56.668Z,44.29
2024-01-29T22:28:24.125Z,44.00
2024-01-29T22:30:50.803Z,44.17
2024-01-29T22:33:17.428Z,44.00
2024-01-29T22:35:44.897Z,44.25
2024-01-29T22:38:11.417Z,43.21
2024-01-29T22:40:38.882Z,43.08
2024-01-29T22:43:05.468Z,43.02
2024-01-29T22:45:32.895Z,43.85
2024-01-29T22:47:59.493Z,44.84
2024-01-29T22:50:26.850Z,43.41
2024-01-29T22:52:53.391Z,43.00
2024-01-29T22:55:20.106Z,43.07
2024-01-29T22:57:46.710Z,43.93
2024-01-29T23:00:15.141Z,45.19
2024-01-29T23:02:42.496Z,44.13
2024-01-29T23:05:09.885Z,44.90
2024-01-29T23:07:36.333Z,44.49
2024-01-29T23:10:03.788Z,44.64
2024-01-29T23:12:31.135Z,45.45
2024-01-29T23:14:59.527Z,44.59
2024-01-29T23:17:26.031Z,44.25
2024-01-29T23:19:52.574Z,43.37
2024-01-29T23:22:19.221Z,44.25
2024-01-29T23:24:46.654Z,43.74
2024-01-29T23:27:14.061Z,44.63
2024-01-29T23:29:40.562Z,43.75
2024-01-29T23:32:07.942Z,44.23
2024-01-29T23:34:34.540Z,44.30
2024-01-29T23:37:01.996Z,43.77
2024-01-29T23:39:28.532Z,43.78
2024-01-29T23:41:56.053Z,43.60
2024-01-29T23:44:24.567Z,44.92
2024-01-29T23:46:51.964Z,44.01
2024-01-29T23:49:19.476Z,43.90
2024-01-29T23:51:46.043Z,43.91
2024-01-29T23:54:13.477Z,44.69
2024-01-29T23:56:40.863Z,45.15
2024-01-29T23:59:08.261Z,44.61
